Time;durP1;ratioP1;P1;durP2;ratioP2;P2;SDS_P1;SDS_P2;PMS_P1;PMS_P2;Temp;Humidity;BMP_temperature;BMP_pressure;BME280_temperature;BME280_humidity;BME280_pressure;Samples;Min_cycle;Max_cycle;Signal;HPM_P1;HPM_P2
2024/04/16 00:00:11;;;;;;;2.00;1.80;;;10.60;99.90;;;;;;5460847;26;20840;-75
2024/04/16 00:02:36;;;;;;;3.17;2.88;;;10.50;99.90;;;;;;5454148;26;20558;-75
2024/04/16 00:05:05;;;;;;;3.03;2.10;;;10.50;99.90;;;;;;5454217;26;20245;-75
2024/04/16 00:07:31;;;;;;;4.88;3.30;;;10.50;99.90;;;;;;5453863;26;20483;-75
2024/04/16 00:10:00;;;;;;;3.37;1.83;;;10.50;99.90;;;;;;5453935;26;20354;-75
2024/04/16 00:12:28;;;;;;;2.58;2.30;;;10.60;99.90;;;;;;5453870;26;21085;-75
2024/04/16 00:14:57;;;;;;;2.22;2.00;;;10.60;99.90;;;;;;5453288;26;20798;-75
2024/04/16 00:17:27;;;;;;;5.05;4.55;;;10.60;99.90;;;;;;5481590;25;20299;-75
2024/04/16 00:19:56;;;;;;;3.88;2.80;;;10.60;99.90;;;;;;5489726;25;20796;-75
2024/04/16 00:22:22;;;;;;;8.52;5.70;;;10.60;99.90;;;;;;5490065;25;20738;-74
2024/04/16 00:24:50;;;;;;;2.60;2.20;;;10.50;99.90;;;;;;5489896;25;20341;-75
2024/04/16 00:27:16;;;;;;;2.97;1.95;;;10.50;99.90;;;;;;5487789;25;20615;-75
2024/04/16 00:29:48;;;;;;;3.17;2.60;;;10.50;99.90;;;;;;5476829;25;20687;-75
2024/04/16 00:32:13;;;;;;;2.45;2.25;;;10.50;99.90;;;;;;5450894;26;20611;-75
2024/04/16 00:34:42;;;;;;;4.47;2.90;;;10.50;99.90;;;;;;5453739;26;20257;-75
2024/04/16 00:37:08;;;;;;;3.58;2.63;;;10.50;99.90;;;;;;5450037;26;21128;-75
2024/04/16 00:39:37;;;;;;;5.35;3.10;;;10.50;99.90;;;;;;5453703;26;20261;-76
2024/04/16 00:42:03;;;;;;;3.00;2.65;;;10.50;99.90;;;;;;5452919;26;20304;-76
2024/04/16 00:44:32;;;;;;;4.65;2.80;;;10.50;99.90;;;;;;5453424;26;20575;-76
2024/04/16 00:47:01;;;;;;;3.20;2.33;;;10.50;99.90;;;;;;5453124;26;20313;-76
2024/04/16 00:49:29;;;;;;;2.95;2.63;;;10.60;99.90;;;;;;5455055;26;20238;-76
2024/04/16 00:51:55;;;;;;;7.35;4.88;;;10.60;99.90;;;;;;5456474;26;20634;-76
2024/04/16 00:54:25;;;;;;;4.30;3.63;;;10.60;99.90;;;;;;5456964;26;20250;-76
2024/04/16 00:56:55;;;;;;;3.25;2.75;;;10.60;99.90;;;;;;5456925;26;20630;-76
2024/04/16 00:59:25;;;;;;;4.07;3.20;;;10.60;99.90;;;;;;5420272;26;20645;-76
2024/04/16 01:01:53;;;;;;;6.85;4.88;;;10.60;99.90;;;;;;5421102;26;20270;-76
2024/04/16 01:04:25;;;;;;;5.15;3.80;;;10.60;99.90;;;;;;5420002;26;20254;-76
2024/04/16 01:06:52;;;;;;;5.93;3.38;;;10.60;99.90;;;;;;5420516;26;20310;-76
2024/04/16 01:09:21;;;;;;;3.90;3.40;;;10.60;99.90;;;;;;5420122;26;20262;-75
2024/04/16 01:11:47;;;;;;;3.92;3.60;;;10.60;99.90;;;;;;5420855;26;20434;-76
2024/04/16 01:14:15;;;;;;;4.33;3.40;;;10.60;99.90;;;;;;5420015;26;20285;-76
2024/04/16 01:16:41;;;;;;;6.20;4.82;;;10.60;99.90;;;;;;5420457;26;20615;-75
2024/04/16 01:19:10;;;;;;;3.55;3.05;;;10.60;99.90;;;;;;5420141;26;20262;-75
2024/04/16 01:21:39;;;;;;;10.75;7.38;;;10.60;99.90;;;;;;5420441;26;20255;-76
2024/04/16 01:24:10;;;;;;;5.85;3.85;;;10.60;99.90;;;;;;5419890;26;20258;-76
2024/04/16 01:26:36;;;;;;;7.03;3.80;;;10.60;99.90;;;;;;5420597;26;20291;-76
2024/04/16 01:29:05;;;;;;;5.38;3.65;;;10.60;99.90;;;;;;5419834;26;20250;-76
2024/04/16 01:31:31;;;;;;;4.85;3.05;;;10.60;99.90;;;;;;5420269;26;20306;-76
2024/04/16 01:34:00;;;;;;;4.75;3.85;;;10.60;99.90;;;;;;5420484;26;20336;-76
2024/04/16 01:36:26;;;;;;;4.80;4.28;;;10.70;99.90;;;;;;5455859;26;20305;-76
2024/04/16 01:38:55;;;;;;;6.90;4.60;;;10.70;99.90;;;;;;5456058;26;20635;-76
2024/04/16 01:41:23;;;;;;;6.97;3.42;;;10.60;99.90;;;;;;5455930;26;20550;-75
2024/04/16 01:43:52;;;;;;;3.78;3.45;;;10.60;99.90;;;;;;5455985;26;20250;-75
2024/04/16 01:46:18;;;;;;;9.95;7.28;;;10.60;99.90;;;;;;5455351;26;20265;-76
2024/04/16 01:48:47;;;;;;;5.40;3.30;;;10.60;99.90;;;;;;5456380;26;20296;-76
2024/04/16 01:51:13;;;;;;;8.23;4.32;;;10.60;99.90;;;;;;5455697;26;20464;-76
2024/04/16 01:53:42;;;;;;;5.80;4.60;;;10.60;99.90;;;;;;5456141;26;20292;-76
2024/04/16 01:56:09;;;;;;;6.38;4.75;;;10.70;99.90;;;;;;5455759;26;20562;-75
2024/04/16 01:58:44;;;;;;;5.03;3.83;;;10.60;99.90;;;;;;5455593;26;20253;-76
2024/04/16 02:01:10;;;;;;;4.55;4.15;;;10.60;99.90;;;;;;5454708;26;20691;-76
2024/04/16 02:03:39;;;;;;;5.03;4.25;;;10.60;99.90;;;;;;5455870;26;20722;-75
2024/04/16 02:06:05;;;;;;;3.70;3.47;;;10.50;99.90;;;;;;5455686;26;20379;-75
2024/04/16 02:08:34;;;;;;;3.28;3.08;;;10.50;99.90;;;;;;5455721;26;20287;-75
2024/04/16 02:11:00;;;;;;;6.00;4.05;;;10.50;99.90;;;;;;5456326;26;20358;-75
2024/04/16 02:13:29;;;;;;;4.50;4.10;;;10.40;99.90;;;;;;5455277;26;20262;-75
2024/04/16 02:15:57;;;;;;;4.38;3.83;;;10.40;99.90;;;;;;5455731;26;20594;-75
2024/04/16 02:18:26;;;;;;;4.60;3.67;;;10.30;99.90;;;;;;5455170;26;20642;-75
2024/04/16 02:20:52;;;;;;;5.28;3.53;;;10.10;99.90;;;;;;5455661;26;20305;-75
2024/04/16 02:23:20;;;;;;;7.77;4.77;;;10.10;99.90;;;;;;5455287;26;20350;-75
2024/04/16 02:25:47;;;;;;;4.45;4.03;;;10.10;99.90;;;;;;5455780;26;20614;-75
2024/04/16 02:28:15;;;;;;;5.03;4.00;;;10.00;99.90;;;;;;5454848;26;20259;-75
2024/04/16 02:30:41;;;;;;;5.65;4.07;;;10.00;99.90;;;;;;5455560;26;20253;-75
2024/04/16 02:33:13;;;;;;;4.80;4.25;;;10.00;99.90;;;;;;5455146;26;20253;-75
2024/04/16 02:35:39;;;;;;;4.10;3.70;;;10.10;99.90;;;;;;5455440;26;20859;-75
2024/04/16 02:38:10;;;;;;;5.43;4.00;;;10.00;99.90;;;;;;5455306;26;20246;-75
2024/04/16 02:40:39;;;;;;;4.00;3.33;;;10.00;99.90;;;;;;5455276;26;20503;-75
2024/04/16 02:43:05;;;;;;;7.38;4.88;;;10.10;99.90;;;;;;5455307;26;20670;-75
2024/04/16 02:45:33;;;;;;;3.67;3.37;;;10.00;99.90;;;;;;5454725;26;20339;-75
2024/04/16 02:47:59;;;;;;;7.78;4.88;;;9.90;99.90;;;;;;5455327;26;20546;-75
2024/04/16 02:50:31;;;;;;;5.37;4.83;;;9.90;99.90;;;;;;5454810;26;20840;-75
2024/04/16 02:52:57;;;;;;;3.60;3.13;;;9.90;99.90;;;;;;5455182;26;20622;-75
2024/04/16 02:55:25;;;;;;;4.90;3.97;;;9.80;99.90;;;;;;5454808;26;20246;-75
2024/04/16 02:57:51;;;;;;;3.63;3.22;;;9.80;99.90;;;;;;5454893;26;20893;-75
2024/04/16 03:00:20;;;;;;;5.70;4.03;;;9.90;99.90;;;;;;5454667;26;20253;-75
2024/04/16 03:02:46;;;;;;;6.38;4.03;;;9.90;99.90;;;;;;5455212;26;21088;-74
2024/04/16 03:05:15;;;;;;;7.20;3.90;;;9.80;99.90;;;;;;5455017;26;20253;-76
2024/04/16 03:07:44;;;;;;;3.92;3.53;;;9.80;99.90;;;;;;5454400;26;20829;-75
2024/04/16 03:10:15;;;;;;;8.05;5.38;;;9.80;99.90;;;;;;5455082;26;20292;-75
2024/04/16 03:12:42;;;;;;;3.88;3.17;;;9.80;99.90;;;;;;5438276;26;20305;-75
2024/04/16 03:15:12;;;;;;;4.32;3.90;;;9.80;99.90;;;;;;5454804;26;20642;-75
2024/04/16 03:17:38;;;;;;;3.65;3.20;;;9.80;99.90;;;;;;5454098;26;20313;-75
2024/04/16 03:20:08;;;;;;;4.07;3.75;;;9.90;99.90;;;;;;5454764;26;20292;-75
2024/04/16 03:22:33;;;;;;;4.93;3.20;;;9.80;99.90;;;;;;5454262;26;20261;-75
2024/04/16 03:25:06;;;;;;;4.37;2.73;;;9.80;99.90;;;;;;5454926;26;20334;-75
2024/04/16 03:27:32;;;;;;;4.20;3.80;;;9.90;99.90;;;;;;5454106;26;20582;-75
2024/04/16 03:30:00;;;;;;;4.93;3.47;;;9.80;99.90;;;;;;5454816;26;20261;-75
2024/04/16 03:32:27;;;;;;;3.38;3.08;;;9.80;99.90;;;;;;5454325;26;20588;-75
2024/04/16 03:34:55;;;;;;;3.72;3.42;;;9.70;99.90;;;;;;5454676;26;20293;-75
2024/04/16 03:37:24;;;;;;;6.75;3.20;;;9.70;99.90;;;;;;5453961;26;20384;-75
2024/04/16 03:39:53;;;;;;;2.72;2.53;;;9.70;99.90;;;;;;5454655;26;20249;-75
2024/04/16 03:42:24;;;;;;;2.60;2.40;;;9.80;99.90;;;;;;5454095;26;20372;-75
2024/04/16 03:44:52;;;;;;;4.60;2.88;;;9.80;99.90;;;;;;5454373;26;20304;-75
2024/04/16 03:47:21;;;;;;;3.60;2.63;;;9.70;99.90;;;;;;5454385;26;20254;-75
2024/04/16 03:49:48;;;;;;;3.65;3.35;;;9.70;99.90;;;;;;5438949;26;20305;-75
2024/04/16 03:52:17;;;;;;;3.60;3.30;;;9.70;99.90;;;;;;5454355;26;20313;-75
2024/04/16 03:54:43;;;;;;;3.65;2.70;;;9.70;99.90;;;;;;5453775;26;20360;-75
2024/04/16 03:57:12;;;;;;;4.43;2.90;;;9.60;99.90;;;;;;5453914;26;20313;-75
2024/04/16 04:02:24;;;;;;;3.85;3.00;;;9.60;99.90;;;;;;5453654;26;20308;-75
2024/04/16 04:04:53;;;;;;;3.05;2.55;;;9.60;99.90;;;;;;5438864;26;20260;-75
2024/04/16 04:07:19;;;;;;;3.47;2.30;;;9.50;99.90;;;;;;5453743;26;20606;-75
2024/04/16 04:09:48;;;;;;;2.70;2.50;;;9.50;99.90;;;;;;5453499;26;23049;-75
2024/04/16 04:12:14;;;;;;;2.85;2.65;;;9.50;99.90;;;;;;5454278;26;20680;-75
2024/04/16 04:14:46;;;;;;;2.50;2.30;;;9.50;99.90;;;;;;5453355;26;20365;-75
2024/04/16 04:17:14;;;;;;;3.17;2.90;;;9.50;99.90;;;;;;5453547;26;20562;-75
2024/04/16 04:19:43;;;;;;;6.40;3.00;;;9.40;99.90;;;;;;5453553;26;20288;-75
2024/04/16 04:22:10;;;;;;;2.67;2.47;;;9.40;99.90;;;;;;5453972;26;20316;-76
2024/04/16 04:24:38;;;;;;;3.10;2.60;;;9.40;99.90;;;;;;5456995;26;20577;-75
2024/04/16 04:27:04;;;;;;;2.30;2.10;;;9.40;99.90;;;;;;5461580;26;20683;-75
2024/04/16 04:29:33;;;;;;;2.88;2.45;;;9.40;99.90;;;;;;5460909;26;20296;-75
2024/04/16 04:32:01;;;;;;;4.30;2.97;;;9.50;99.90;;;;;;5461658;26;20293;-76
2024/04/16 04:34:30;;;;;;;5.78;2.33;;;9.50;99.90;;;;;;5460881;26;20339;-76
2024/04/16 04:36:56;;;;;;;2.75;2.50;;;9.50;99.90;;;;;;5461192;26;20852;-76
2024/04/16 04:39:24;;;;;;;3.77;2.70;;;9.50;99.90;;;;;;5461344;26;20343;-75
2024/04/16 04:41:50;;;;;;;2.95;2.40;;;9.50;99.90;;;;;;5460875;26;20675;-75
2024/04/16 04:44:19;;;;;;;4.80;2.40;;;9.60;99.90;;;;;;5461149;26;20261;-75
2024/04/16 04:46:45;;;;;;;3.85;2.45;;;9.60;99.90;;;;;;5460649;26;20554;-75
2024/04/16 04:49:16;;;;;;;2.77;2.57;;;9.50;99.90;;;;;;5461058;26;20354;-75
2024/04/16 04:51:45;;;;;;;2.95;2.22;;;9.60;99.90;;;;;;5460579;26;20614;-76
2024/04/16 04:54:10;;;;;;;2.40;2.20;;;9.60;99.90;;;;;;5461157;26;20308;-76
2024/04/16 04:56:39;;;;;;;3.33;2.37;;;9.60;99.90;;;;;;5460439;26;20245;-76
2024/04/16 04:59:05;;;;;;;3.40;3.15;;;9.60;99.90;;;;;;5460763;26;20527;-75
2024/04/16 05:01:34;;;;;;;3.75;2.63;;;9.60;99.90;;;;;;5460343;26;20249;-75
2024/04/16 05:04:00;;;;;;;4.43;3.55;;;9.70;99.90;;;;;;5460727;26;20313;-76
2024/04/16 05:06:32;;;;;;;3.50;3.30;;;9.70;99.90;;;;;;5460886;26;20354;-76
2024/04/16 05:08:59;;;;;;;7.60;5.40;;;9.80;99.90;;;;;;5460551;26;20611;-76
2024/04/16 05:11:28;;;;;;;2.88;2.67;;;9.80;99.90;;;;;;5460722;26;20253;-76
2024/04/16 05:13:53;;;;;;;5.80;4.50;;;9.70;99.90;;;;;;5460071;26;20272;-75
2024/04/16 05:16:22;;;;;;;4.83;3.63;;;9.70;99.90;;;;;;5460676;26;20350;-75
2024/04/16 05:18:48;;;;;;;6.45;4.50;;;9.70;99.90;;;;;;5460385;26;20566;-75
2024/04/16 05:21:17;;;;;;;7.28;4.95;;;9.60;99.90;;;;;;5460607;26;20288;-75
2024/04/16 05:23:48;;;;;;;9.30;6.80;;;9.70;99.90;;;;;;5460037;26;20306;-75
2024/04/16 05:26:17;;;;;;;5.50;3.70;;;9.70;99.90;;;;;;5460042;26;20254;-76
2024/04/16 05:28:45;;;;;;;3.70;3.40;;;9.70;99.90;;;;;;5459807;26;20594;-76
2024/04/16 05:31:11;;;;;;;8.07;6.05;;;9.70;99.90;;;;;;5460362;26;20356;-75
2024/04/16 05:33:40;;;;;;;4.00;3.57;;;9.70;99.90;;;;;;5460053;26;20257;-75
2024/04/16 05:36:06;;;;;;;4.30;3.67;;;9.70;99.90;;;;;;5457257;26;20550;-76
2024/04/16 05:38:35;;;;;;;4.05;3.65;;;9.70;99.90;;;;;;5456315;26;20752;-75
2024/04/16 05:41:04;;;;;;;3.72;3.42;;;9.70;99.90;;;;;;5456083;26;20633;-74
2024/04/16 05:43:33;;;;;;;3.78;3.47;;;9.70;99.90;;;;;;5455848;26;20266;-75
2024/04/16 05:45:59;;;;;;;6.78;4.13;;;9.70;99.90;;;;;;5455821;26;20695;-75
2024/04/16 05:48:28;;;;;;;6.57;3.50;;;9.70;99.90;;;;;;5456038;26;20300;-77
2024/04/16 05:50:56;;;;;;;5.10;3.95;;;9.60;99.90;;;;;;5455495;26;20495;-76
2024/04/16 05:53:24;;;;;;;6.32;3.65;;;9.70;99.90;;;;;;5456284;26;20326;-75
2024/04/16 05:55:50;;;;;;;3.60;2.90;;;9.80;99.90;;;;;;5455714;26;20379;-76
2024/04/16 05:58:22;;;;;;;5.40;3.47;;;9.90;99.90;;;;;;5456112;26;20253;-75
2024/04/16 06:00:48;;;;;;;3.55;2.97;;;10.00;99.90;;;;;;5455625;26;20471;-76
2024/04/16 06:03:17;;;;;;;5.80;5.30;;;10.00;99.90;;;;;;5455658;26;20600;-75
2024/04/16 06:05:43;;;;;;;5.32;4.88;;;10.10;99.90;;;;;;5455362;26;20577;-77
2024/04/16 06:08:11;;;;;;;5.50;3.97;;;10.00;99.90;;;;;;5456052;26;20258;-76
2024/04/16 06:10:37;;;;;;;5.05;4.53;;;10.10;99.90;;;;;;5455779;26;21028;-75
2024/04/16 06:13:06;;;;;;;2.53;2.43;;;10.10;99.90;;;;;;5455492;26;20330;-74
2024/04/16 06:15:35;;;;;;;2.80;2.60;;;10.10;99.90;;;;;;5455629;26;20558;-75
2024/04/16 06:18:09;;;;;;;2.60;2.40;;;10.10;99.90;;;;;;5455256;26;20284;-75
2024/04/16 06:20:35;;;;;;;3.92;3.03;;;10.10;99.90;;;;;;5455779;26;20293;-75
2024/04/16 06:23:03;;;;;;;3.07;2.80;;;10.10;99.90;;;;;;5455317;26;20289;-75
2024/04/16 06:25:29;;;;;;;3.88;2.75;;;10.10;99.90;;;;;;5455799;26;20542;-75
2024/04/16 06:27:58;;;;;;;3.87;3.03;;;10.10;99.90;;;;;;5455131;26;20246;-75
2024/04/16 06:30:24;;;;;;;4.30;3.20;;;10.20;99.90;;;;;;5455751;26;20546;-75
2024/04/16 06:32:55;;;;;;;4.70;3.03;;;10.10;99.90;;;;;;5455151;26;20522;-75
2024/04/16 06:35:24;;;;;;;5.03;4.50;;;10.00;99.90;;;;;;5455253;26;20534;-77
2024/04/16 06:37:50;;;;;;;5.72;3.80;;;10.00;99.90;;;;;;5455099;26;20258;-76
2024/04/16 06:40:18;;;;;;;7.60;5.13;;;10.00;99.90;;;;;;5455680;26;20250;-75
2024/04/16 06:42:44;;;;;;;4.45;4.15;;;10.00;99.90;;;;;;5455040;26;20614;-75
2024/04/16 06:45:13;;;;;;;5.73;3.83;;;10.00;99.90;;;;;;5455392;26;20688;-75
2024/04/16 06:47:39;;;;;;;3.50;3.20;;;10.00;99.90;;;;;;5454951;26;20620;-75
2024/04/16 06:50:10;;;;;;;5.43;4.93;;;10.10;99.90;;;;;;5455030;26;20601;-75
2024/04/16 06:52:36;;;;;;;5.75;4.30;;;10.00;99.90;;;;;;5455198;26;20797;-75
2024/04/16 06:55:05;;;;;;;5.03;4.63;;;10.10;99.90;;;;;;5454584;26;20257;-75
2024/04/16 06:57:31;;;;;;;7.63;6.13;;;10.10;99.90;;;;;;5455075;26;20582;-76
2024/04/16 06:59:59;;;;;;;4.33;3.90;;;10.10;99.90;;;;;;5454706;26;20265;-76
2024/04/16 07:02:25;;;;;;;5.40;4.32;;;10.20;99.90;;;;;;5455156;26;20519;-76
2024/04/16 07:04:54;;;;;;;6.77;3.80;;;10.20;99.90;;;;;;5454430;26;20249;-76
2024/04/16 07:07:22;;;;;;;4.82;4.38;;;10.20;99.90;;;;;;5454868;26;20546;-76
2024/04/16 07:09:51;;;;;;;5.05;4.63;;;10.20;99.90;;;;;;5454591;26;20283;-76
2024/04/16 07:12:17;;;;;;;9.20;4.95;;;10.20;99.90;;;;;;5454904;26;20305;-76
2024/04/16 07:14:45;;;;;;;7.50;5.40;;;10.20;99.90;;;;;;5454865;26;20249;-75
2024/04/16 07:17:11;;;;;;;5.30;4.85;;;10.20;99.90;;;;;;5454218;26;20610;-75
2024/04/16 07:19:40;;;;;;;7.60;5.63;;;10.30;99.90;;;;;;5454886;26;20257;-75
2024/04/16 07:22:06;;;;;;;7.82;7.22;;;10.30;99.90;;;;;;5454379;26;20495;-76
2024/04/16 07:24:37;;;;;;;8.43;5.60;;;10.40;99.90;;;;;;5454700;26;20253;-76
2024/04/16 07:27:03;;;;;;;6.55;5.75;;;10.40;99.90;;;;;;5454162;26;20838;-76
2024/04/16 07:29:32;;;;;;;7.20;5.88;;;10.40;99.90;;;;;;5454628;26;20265;-74
2024/04/16 07:31:58;;;;;;;5.07;4.55;;;10.40;99.90;;;;;;5454167;26;20313;-75
2024/04/16 07:34:27;;;;;;;5.33;4.80;;;10.50;99.90;;;;;;5454719;26;20343;-75
2024/04/16 07:36:52;;;;;;;8.57;5.40;;;10.50;99.90;;;;;;5453995;26;20885;-75
2024/04/16 07:39:21;;;;;;;6.87;6.17;;;10.50;99.90;;;;;;5454647;26;20261;-75
2024/04/16 07:41:50;;;;;;;8.15;7.20;;;10.50;99.90;;;;;;5454313;26;20546;-76
2024/04/16 07:44:20;;;;;;;13.57;7.63;;;10.50;99.90;;;;;;5439206;26;20246;-75
2024/04/16 07:46:46;;;;;;;7.97;6.85;;;10.50;99.90;;;;;;5454245;26;20296;-76
2024/04/16 07:49:15;;;;;;;13.20;9.70;;;10.50;99.90;;;;;;5453743;26;20297;-74
2024/04/16 07:51:41;;;;;;;6.75;6.15;;;10.50;99.90;;;;;;5454472;26;20300;-76
2024/04/16 07:54:10;;;;;;;6.60;5.90;;;10.50;99.90;;;;;;5453665;26;20340;-75
2024/04/16 07:56:36;;;;;;;7.47;6.68;;;10.50;99.90;;;;;;5454204;26;20618;-75
2024/04/16 07:59:07;;;;;;;7.80;7.00;;;10.50;99.90;;;;;;5452881;26;20250;-76
2024/04/16 08:01:33;;;;;;;8.73;5.82;;;10.50;99.90;;;;;;5454131;26;20597;-76
2024/04/16 08:04:01;;;;;;;5.57;4.40;;;10.40;99.90;;;;;;5453606;26;20257;-76
2024/04/16 08:06:27;;;;;;;6.50;5.30;;;10.50;99.90;;;;;;5453965;26;20554;-77
2024/04/16 08:08:56;;;;;;;9.03;6.10;;;10.50;99.90;;;;;;5453146;26;20351;-75
2024/04/16 08:11:22;;;;;;;13.50;10.13;;;10.50;99.90;;;;;;5454139;26;20479;-76
2024/04/16 08:13:51;;;;;;;7.15;5.25;;;10.60;99.90;;;;;;5454085;26;20253;-75
2024/04/16 08:16:20;;;;;;;5.35;4.55;;;10.50;99.90;;;;;;5453286;26;20249;-75
2024/04/16 08:18:49;;;;;;;7.85;4.80;;;10.40;99.90;;;;;;5454052;26;20292;-76
2024/04/16 08:21:15;;;;;;;7.90;5.72;;;10.50;99.90;;;;;;5453381;26;20313;-76
2024/04/16 08:23:44;;;;;;;9.30;5.27;;;10.40;99.90;;;;;;5453693;26;20355;-76
2024/04/16 08:26:09;;;;;;;7.70;6.45;;;10.40;99.90;;;;;;5453565;26;20538;-76
2024/04/16 08:28:38;;;;;;;5.93;5.27;;;10.50;99.90;;;;;;5453720;26;20249;-76
2024/04/16 08:31:05;;;;;;;5.40;4.65;;;10.50;99.90;;;;;;5453354;26;20585;-75
2024/04/16 08:33:36;;;;;;;7.85;5.22;;;10.50;99.90;;;;;;5454030;26;20565;-75
2024/04/16 08:36:02;;;;;;;6.43;5.50;;;10.50;99.90;;;;;;5453264;26;20305;-76
2024/04/16 08:38:31;;;;;;;5.90;5.10;;;10.60;99.90;;;;;;5453389;26;20331;-75
2024/04/16 08:40:57;;;;;;;8.95;6.10;;;10.50;99.90;;;;;;5453285;26;20261;-75
2024/04/16 08:43:27;;;;;;;8.10;6.30;;;10.50;99.90;;;;;;5453504;26;20339;-76
2024/04/16 08:45:54;;;;;;;7.00;6.35;;;10.50;99.90;;;;;;5453562;26;20474;-75
2024/04/16 08:48:25;;;;;;;8.02;6.47;;;10.40;99.90;;;;;;5417056;26;20356;-76
2024/04/16 08:50:55;;;;;;;8.30;6.40;;;10.40;99.90;;;;;;5417692;26;20810;-76
2024/04/16 08:53:26;;;;;;;7.15;6.45;;;10.40;99.90;;;;;;5416797;26;20561;-75
2024/04/16 08:55:52;;;;;;;6.85;6.15;;;10.30;99.90;;;;;;5417512;26;20254;-75
2024/04/16 08:58:21;;;;;;;7.10;5.97;;;10.40;99.90;;;;;;5416660;26;20247;-76
2024/04/16 09:00:47;;;;;;;6.45;5.85;;;10.40;99.90;;;;;;5417458;26;20591;-76
2024/04/16 09:03:16;;;;;;;11.15;5.80;;;10.40;99.90;;;;;;5416952;26;20790;-76
2024/04/16 09:05:43;;;;;;;8.75;6.30;;;10.40;99.90;;;;;;5417121;26;20368;-75
2024/04/16 09:08:14;;;;;;;9.80;6.38;;;10.50;99.90;;;;;;5416457;26;20326;-77
2024/04/16 09:10:43;;;;;;;11.88;6.90;;;10.50;99.90;;;;;;5417271;26;20261;-77
2024/04/16 09:13:13;;;;;;;7.40;5.60;;;10.50;99.90;;;;;;5420316;26;20251;-75
2024/04/16 09:15:40;;;;;;;7.38;5.88;;;10.60;99.90;;;;;;5420673;26;20289;-76
2024/04/16 09:18:10;;;;;;;6.72;5.97;;;10.70;99.90;;;;;;5420166;26;20554;-76
2024/04/16 09:20:36;;;;;;;10.95;6.57;;;10.80;99.90;;;;;;5420841;26;20356;-75
2024/04/16 09:23:05;;;;;;;7.13;5.40;;;11.00;99.90;;;;;;5420152;26;20259;-75
2024/04/16 09:25:38;;;;;;;5.85;5.03;;;11.00;99.90;;;;;;5420477;26;21086;-76
2024/04/16 09:28:08;;;;;;;7.57;5.57;;;11.10;99.90;;;;;;5420024;26;20359;-75
2024/04/16 09:30:34;;;;;;;8.07;6.93;;;11.20;99.90;;;;;;5420263;26;20266;-77
2024/04/16 09:33:07;;;;;;;9.75;6.07;;;11.30;99.90;;;;;;5419808;26;20255;-76
2024/04/16 09:35:32;;;;;;;7.90;5.68;;;11.40;99.90;;;;;;5420563;26;20318;-76
2024/04/16 09:38:02;;;;;;;6.10;4.90;;;11.40;99.90;;;;;;5420301;26;20251;-76
2024/04/16 09:40:29;;;;;;;8.60;5.60;;;11.40;99.90;;;;;;5419910;26;20964;-76
2024/04/16 09:43:01;;;;;;;7.13;5.25;;;11.50;99.90;;;;;;5420350;26;20258;-76
2024/04/16 09:45:28;;;;;;;7.30;5.80;;;11.50;99.90;;;;;;5419905;26;20302;-76
2024/04/16 09:47:58;;;;;;;6.30;4.18;;;11.40;99.90;;;;;;5420192;26;20791;-75
2024/04/16 09:50:25;;;;;;;7.15;4.68;;;11.50;99.90;;;;;;5419743;26;20298;-76
2024/04/16 09:52:55;;;;;;;6.97;4.65;;;11.40;99.90;;;;;;5420143;26;20677;-75
2024/04/16 09:55:22;;;;;;;10.02;4.47;;;11.40;99.90;;;;;;5419844;26;20684;-77
2024/04/16 09:57:51;;;;;;;7.43;3.67;;;11.50;99.90;;;;;;5420150;26;20706;-75
2024/04/16 10:00:20;;;;;;;6.75;4.25;;;11.50;99.90;;;;;;5419481;26;20691;-75
2024/04/16 10:02:51;;;;;;;6.80;5.10;;;11.60;99.90;;;;;;5419914;26;20301;-75
2024/04/16 10:05:17;;;;;;;4.28;3.95;;;11.70;99.90;;;;;;5419587;26;20254;-76
2024/04/16 10:07:49;;;;;;;9.67;4.33;;;11.70;99.90;;;;;;5419972;26;20306;-76
2024/04/16 10:10:15;;;;;;;7.85;4.28;;;11.80;99.90;;;;;;5419244;26;20525;-75
2024/04/16 10:12:45;;;;;;;7.85;3.90;;;12.00;99.90;;;;;;5419781;26;20250;-75
2024/04/16 10:15:13;;;;;;;7.78;4.70;;;12.00;99.90;;;;;;5419569;26;20254;-75
2024/04/16 10:17:55;;;;;;;7.53;4.20;;;12.10;99.90;;;;;;5419721;26;20250;-75
2024/04/16 10:20:23;;;;;;;6.78;5.22;;;12.10;99.90;;;;;;5419215;26;20317;-75
2024/04/16 10:22:59;;;;;;;10.02;5.15;;;12.20;99.90;;;;;;5419254;26;20310;-75
2024/04/16 10:25:30;;;;;;;5.65;3.72;;;12.30;99.90;;;;;;5419339;26;20705;-75
2024/04/16 10:28:01;;;;;;;3.30;2.70;;;12.40;99.90;;;;;;5419463;26;20306;-76
2024/04/16 10:30:31;;;;;;;3.70;2.50;;;12.40;99.90;;;;;;5418924;26;20343;-76
2024/04/16 10:33:04;;;;;;;5.22;3.08;;;12.40;99.90;;;;;;5419706;26;20348;-75
2024/04/16 10:35:32;;;;;;;6.13;2.88;;;12.40;99.90;;;;;;5419423;26;20254;-76
2024/04/16 10:38:01;;;;;;;2.90;2.50;;;12.50;99.90;;;;;;5419412;26;20251;-76
2024/04/16 10:40:28;;;;;;;3.05;2.30;;;12.50;99.90;;;;;;5419416;26;20293;-76
2024/04/16 10:42:58;;;;;;;3.25;2.33;;;12.60;99.90;;;;;;5419231;26;20262;-76
2024/04/16 10:45:24;;;;;;;6.90;3.80;;;12.60;99.90;;;;;;5418755;26;20262;-76
2024/04/16 10:47:54;;;;;;;13.70;4.05;;;12.60;99.90;;;;;;5419265;26;20266;-76
2024/04/16 10:50:22;;;;;;;5.15;3.00;;;12.50;99.90;;;;;;5419042;26;20266;-76
2024/04/16 10:52:51;;;;;;;5.18;2.92;;;12.60;99.90;;;;;;5419287;26;20258;-75
2024/04/16 10:55:17;;;;;;;6.50;3.95;;;12.60;99.90;;;;;;5418927;26;20306;-76
2024/04/16 10:57:46;;;;;;;5.85;2.90;;;12.60;99.90;;;;;;5418921;26;20896;-75
2024/04/16 11:00:13;;;;;;;8.00;4.47;;;12.60;99.90;;;;;;5418540;26;20372;-76
2024/04/16 11:02:42;;;;;;;5.65;3.35;;;12.50;99.90;;;;;;5419016;26;20270;-76
2024/04/16 11:05:08;;;;;;;5.20;2.58;;;12.60;99.90;;;;;;5419245;26;20293;-75
2024/04/16 11:07:40;;;;;;;3.70;2.80;;;12.80;99.90;;;;;;5418620;26;20540;-76
2024/04/16 11:10:06;;;;;;;4.10;2.00;;;12.80;99.90;;;;;;5419133;26;20468;-76
2024/04/16 11:12:36;;;;;;;6.50;2.60;;;12.90;99.90;;;;;;5418613;26;20616;-75
2024/04/16 11:15:02;;;;;;;4.47;2.83;;;12.90;99.90;;;;;;5419069;26;20355;-76
2024/04/16 11:17:31;;;;;;;9.85;3.83;;;12.90;99.90;;;;;;5418314;26;20585;-76
2024/04/16 11:19:57;;;;;;;3.90;2.22;;;12.80;99.90;;;;;;5418930;26;20678;-76
2024/04/16 11:22:26;;;;;;;3.13;2.42;;;12.80;99.90;;;;;;5417578;26;20251;-74
2024/04/16 11:24:55;;;;;;;9.70;4.97;;;12.70;99.90;;;;;;5419228;26;20666;-77
2024/04/16 11:27:25;;;;;;;4.18;2.72;;;12.60;99.90;;;;;;5418568;26;20331;-76
2024/04/16 11:29:52;;;;;;;6.32;2.75;;;12.50;99.90;;;;;;5418540;26;20317;-76
2024/04/16 11:32:21;;;;;;;6.03;3.63;;;12.50;99.90;;;;;;5418213;26;20322;-75
2024/04/16 11:34:48;;;;;;;6.57;2.63;;;12.50;99.90;;;;;;5417699;26;20285;-75
2024/04/16 11:37:17;;;;;;;3.03;2.38;;;12.60;99.90;;;;;;5418094;26;20810;-75
2024/04/16 11:39:43;;;;;;;4.68;3.00;;;12.70;99.90;;;;;;5418856;26;20258;-76
2024/04/16 11:42:20;;;;;;;5.23;3.13;;;12.70;99.90;;;;;;5418912;26;20347;-75
2024/04/16 11:44:53;;;;;;;7.32;2.70;;;12.80;99.90;;;;;;5417828;26;20475;-75
2024/04/16 11:47:23;;;;;;;3.55;2.25;;;12.80;99.90;;;;;;5417507;26;20266;-75
2024/04/16 11:49:50;;;;;;;4.78;3.08;;;12.80;99.90;;;;;;5417784;26;20332;-76
2024/04/16 11:52:19;;;;;;;4.25;2.25;;;12.80;99.90;;;;;;5418300;26;20591;-76
2024/04/16 11:54:45;;;;;;;4.82;2.67;;;12.80;99.90;;;;;;5417889;26;23319;-76
2024/04/16 11:57:14;;;;;;;7.30;3.75;;;12.90;99.90;;;;;;5418728;26;20292;-75
2024/04/16 11:59:43;;;;;;;2.40;2.05;;;12.90;99.90;;;;;;5417713;26;20308;-76
2024/04/16 12:02:13;;;;;;;3.58;2.60;;;13.00;99.90;;;;;;5418074;26;20281;-75
2024/04/16 12:04:39;;;;;;;5.07;2.78;;;13.00;99.90;;;;;;5418008;26;20266;-75
2024/04/16 12:07:08;;;;;;;6.72;3.75;;;13.10;99.90;;;;;;5418379;26;20251;-75
2024/04/16 12:09:36;;;;;;;5.57;3.10;;;13.20;99.90;;;;;;5417583;26;20250;-76
2024/04/16 12:12:12;;;;;;;5.00;3.30;;;13.30;99.90;;;;;;5418091;26;20297;-76
2024/04/16 12:14:38;;;;;;;4.15;3.20;;;13.30;99.90;;;;;;5417342;26;20254;-77
2024/04/16 12:17:09;;;;;;;4.80;3.53;;;13.40;99.90;;;;;;5417642;26;20289;-75
2024/04/16 12:19:35;;;;;;;5.72;3.17;;;13.30;99.90;;;;;;5417128;26;20472;-75
2024/04/16 12:22:03;;;;;;;2.70;2.27;;;13.30;99.90;;;;;;5418011;26;20340;-75
2024/04/16 12:24:29;;;;;;;2.85;2.33;;;13.40;99.90;;;;;;5417381;26;21226;-75
2024/04/16 12:26:58;;;;;;;3.53;2.00;;;13.50;99.90;;;;;;5417785;26;20266;-75
2024/04/16 12:29:24;;;;;;;3.30;2.10;;;13.50;99.90;;;;;;5417836;26;20540;-75
2024/04/16 12:31:52;;;;;;;4.23;2.20;;;13.40;99.90;;;;;;5417317;26;20340;-76
2024/04/16 12:34:21;;;;;;;2.38;2.15;;;13.50;99.90;;;;;;5418000;26;20529;-76
2024/04/16 12:36:50;;;;;;;3.50;2.60;;;13.40;99.90;;;;;;5417536;26;20556;-76
2024/04/16 12:39:16;;;;;;;2.58;2.20;;;13.40;99.90;;;;;;5417466;26;20322;-76
2024/04/16 12:41:45;;;;;;;3.10;1.83;;;13.20;99.90;;;;;;5417357;26;20344;-76
2024/04/16 12:44:10;;;;;;;2.60;1.85;;;13.10;99.90;;;;;;5417751;26;20547;-76
2024/04/16 12:46:39;;;;;;;4.30;1.93;;;13.00;99.90;;;;;;5420055;26;20340;-75
2024/04/16 12:49:05;;;;;;;4.10;2.35;;;12.80;99.90;;;;;;5421247;26;20640;-75
2024/04/16 12:51:37;;;;;;;3.88;1.75;;;12.70;99.90;;;;;;5420152;26;20251;-75
2024/04/16 12:54:03;;;;;;;3.78;2.17;;;12.50;99.90;;;;;;5421117;26;20656;-75